Time;durP1;ratioP1;P1;durP2;ratioP2;P2;SDS_P1;SDS_P2;PMS_P1;PMS_P2;Temp;Humidity;BMP_temperature;BMP_pressure;BME280_temperature;BME280_humidity;BME280_pressure;Samples;Min_cycle;Max_cycle;Signal;HPM_P1;HPM_P2
2023/05/30 00:01:18;;;;;;;10.07;4.70;;;24.90;61.20;;;;;;6214892;23;20011;-81
2023/05/30 00:03:45;;;;;;;5.00;3.90;;;25.00;60.80;;;;;;6215623;23;19997;-81
2023/05/30 00:06:12;;;;;;;5.00;3.85;;;24.90;60.70;;;;;;6215642;23;20007;-81
2023/05/30 00:08:39;;;;;;;5.13;3.22;;;25.00;60.80;;;;;;6215607;23;20004;-82
2023/05/30 00:11:06;;;;;;;5.20;3.58;;;24.90;60.60;;;;;;6214899;23;20032;-81
2023/05/30 00:13:32;;;;;;;5.55;3.88;;;24.90;60.70;;;;;;6215440;23;20047;-81
2023/05/30 00:15:58;;;;;;;4.43;3.85;;;24.90;60.70;;;;;;6215154;23;20076;-80
2023/05/30 00:18:25;;;;;;;3.42;2.95;;;24.90;60.80;;;;;;6215711;23;20084;-80
2023/05/30 00:20:51;;;;;;;10.80;3.92;;;24.90;60.90;;;;;;6215045;23;20031;-80
2023/05/30 00:23:17;;;;;;;6.32;3.80;;;24.90;61.00;;;;;;6215142;23;20031;-81
2023/05/30 00:25:45;;;;;;;6.22;4.10;;;24.90;60.90;;;;;;6214738;23;20004;-80
2023/05/30 00:28:11;;;;;;;5.00;3.78;;;24.90;61.00;;;;;;6215556;23;20043;-80
2023/05/30 00:30:37;;;;;;;5.32;3.85;;;24.90;60.90;;;;;;6215645;23;19996;-80
2023/05/30 00:33:03;;;;;;;6.88;4.00;;;24.80;61.00;;;;;;6214352;23;20000;-79
2023/05/30 00:35:29;;;;;;;6.10;3.78;;;24.80;61.00;;;;;;6214519;23;20004;-79
2023/05/30 00:37:55;;;;;;;5.22;3.33;;;24.80;61.20;;;;;;6215370;23;20000;-79
2023/05/30 00:40:20;;;;;;;6.20;4.43;;;24.80;61.60;;;;;;6215609;23;20071;-80
2023/05/30 00:42:46;;;;;;;6.25;4.05;;;24.80;61.60;;;;;;6214726;23;20028;-80
2023/05/30 00:45:12;;;;;;;7.68;4.28;;;24.80;62.70;;;;;;6188101;23;20004;-80
2023/05/30 00:47:38;;;;;;;5.40;3.85;;;24.70;61.80;;;;;;6214304;23;20293;-80
2023/05/30 00:50:07;;;;;;;8.65;4.25;;;24.70;61.90;;;;;;6215413;23;20007;-80
2023/05/30 00:52:34;;;;;;;6.20;3.55;;;24.70;61.80;;;;;;6214947;23;20028;-81
2023/05/30 00:55:03;;;;;;;6.20;3.90;;;24.70;62.00;;;;;;6215320;23;20005;-81
2023/05/30 00:57:33;;;;;;;5.00;3.47;;;24.70;62.40;;;;;;6214650;23;20012;-81
2023/05/30 01:00:00;;;;;;;6.03;3.25;;;24.70;62.20;;;;;;6215419;23;20008;-81
2023/05/30 01:02:26;;;;;;;6.45;4.03;;;24.70;62.30;;;;;;6214582;23;20032;-80
2023/05/30 01:04:52;;;;;;;9.95;4.20;;;24.70;62.20;;;;;;6215523;23;20497;-80
2023/05/30 01:07:17;;;;;;;5.28;3.90;;;24.60;62.60;;;;;;6215046;23;20004;-80
2023/05/30 01:09:43;;;;;;;7.05;4.70;;;24.60;62.50;;;;;;6214399;23;20008;-80
2023/05/30 01:12:21;;;;;;;5.85;3.85;;;24.40;62.80;;;;;;6215323;23;20425;-81
2023/05/30 01:15:09;;;;;;;7.10;3.97;;;24.40;63.00;;;;;;6214397;23;20067;-81
2023/05/30 01:18:04;;;;;;;6.05;3.15;;;24.30;63.10;;;;;;6214881;23;20415;-81
2023/05/30 01:20:44;;;;;;;6.82;3.97;;;24.10;63.80;;;;;;6201584;23;20012;-81
2023/05/30 01:23:09;;;;;;;6.13;3.92;;;24.10;63.60;;;;;;6214618;23;20004;-80
2023/05/30 01:25:38;;;;;;;4.80;3.28;;;24.00;63.50;;;;;;6214218;23;20419;-81
2023/05/30 01:28:09;;;;;;;6.63;4.15;;;24.00;63.90;;;;;;6214996;23;20001;-81
2023/05/30 01:30:38;;;;;;;5.45;3.65;;;24.00;63.90;;;;;;6214597;23;20051;-81
2023/05/30 01:33:07;;;;;;;3.45;3.15;;;24.00;63.90;;;;;;6188257;23;20008;-81
2023/05/30 01:35:32;;;;;;;7.50;4.25;;;23.90;64.10;;;;;;6214562;23;20383;-81
2023/05/30 01:37:58;;;;;;;6.22;3.20;;;23.90;64.20;;;;;;6214855;23;20033;-81
2023/05/30 01:40:27;;;;;;;6.70;4.43;;;23.90;64.20;;;;;;6215701;23;20004;-80
2023/05/30 01:43:11;;;;;;;4.95;3.47;;;23.90;64.80;;;;;;6215350;23;20008;-81
2023/05/30 01:45:52;;;;;;;5.93;3.53;;;23.90;64.50;;;;;;6214622;23;20005;-81
2023/05/30 01:48:43;;;;;;;6.20;4.00;;;23.80;64.90;;;;;;6214792;23;20075;-80
2023/05/30 01:51:14;;;;;;;6.20;3.33;;;23.80;65.00;;;;;;6214461;23;20001;-80
2023/05/30 01:53:47;;;;;;;5.28;3.85;;;23.70;64.50;;;;;;6215088;23;20084;-80
2023/05/30 01:56:14;;;;;;;5.82;3.50;;;23.70;64.80;;;;;;6214419;23;20435;-80
2023/05/30 01:58:40;;;;;;;6.07;3.92;;;23.70;64.80;;;;;;6187520;23;20001;-81
2023/05/30 02:01:07;;;;;;;8.80;4.70;;;23.70;65.00;;;;;;6215781;23;20059;-80
2023/05/30 02:03:33;;;;;;;5.43;3.78;;;23.70;65.50;;;;;;6216686;23;19997;-80
2023/05/30 02:06:00;;;;;;;4.47;3.38;;;23.70;65.10;;;;;;6217337;23;20012;-80
2023/05/30 02:08:26;;;;;;;6.60;3.65;;;23.70;65.30;;;;;;6216471;23;20004;-80
2023/05/30 02:10:52;;;;;;;4.03;3.40;;;23.60;65.40;;;;;;6216693;23;20016;-80
2023/05/30 02:13:18;;;;;;;6.88;4.78;;;23.60;65.10;;;;;;6216788;23;20695;-80
2023/05/30 02:15:44;;;;;;;7.07;3.65;;;23.60;65.50;;;;;;6190542;23;20005;-80
2023/05/30 02:18:10;;;;;;;5.55;3.47;;;23.50;65.40;;;;;;6216586;23;20005;-80
2023/05/30 02:20:36;;;;;;;5.05;3.55;;;23.50;65.10;;;;;;6216920;23;20063;-80
2023/05/30 02:23:02;;;;;;;5.47;3.75;;;23.50;65.30;;;;;;6216077;23;20011;-80
2023/05/30 02:25:28;;;;;;;6.13;3.45;;;23.50;65.30;;;;;;6189926;23;20013;-80
2023/05/30 02:27:54;;;;;;;4.32;3.17;;;23.50;65.20;;;;;;6217214;23;19996;-80
2023/05/30 02:30:20;;;;;;;5.70;3.35;;;23.60;65.00;;;;;;6216739;23;19996;-80
2023/05/30 02:32:45;;;;;;;4.72;3.10;;;23.60;64.70;;;;;;6216305;23;20001;-80
2023/05/30 02:35:12;;;;;;;5.82;3.50;;;23.60;65.10;;;;;;6216460;23;20011;-80
2023/05/30 02:37:39;;;;;;;4.65;3.63;;;23.70;64.40;;;;;;6216746;23;20391;-80
2023/05/30 02:40:09;;;;;;;5.45;3.70;;;23.70;64.20;;;;;;6215354;23;20084;-80
2023/05/30 02:42:35;;;;;;;4.80;3.58;;;23.70;64.10;;;;;;6215957;23;20088;-80
2023/05/30 02:45:01;;;;;;;5.45;3.70;;;23.70;63.80;;;;;;6216101;23;20063;-80
2023/05/30 02:47:27;;;;;;;5.97;3.80;;;23.70;63.70;;;;;;6216557;23;20001;-80
2023/05/30 02:49:53;;;;;;;5.57;3.80;;;23.80;63.60;;;;;;6215276;23;20000;-80
2023/05/30 02:52:19;;;;;;;5.25;3.70;;;23.70;63.60;;;;;;6216676;23;20003;-80
2023/05/30 02:54:46;;;;;;;5.65;3.80;;;23.70;63.50;;;;;;6216392;23;20075;-80
2023/05/30 02:57:12;;;;;;;11.32;3.40;;;23.60;63.50;;;;;;6216335;23;20047;-79
2023/05/30 02:59:38;;;;;;;4.85;3.35;;;23.60;63.40;;;;;;6216406;23;20008;-80
2023/05/30 03:02:03;;;;;;;5.13;3.75;;;23.60;63.50;;;;;;6216087;23;20011;-80
2023/05/30 03:04:29;;;;;;;7.30;3.83;;;23.60;63.40;;;;;;6189684;23;20012;-80
2023/05/30 03:06:55;;;;;;;5.13;3.83;;;23.60;63.60;;;;;;6216545;23;20005;-80
2023/05/30 03:09:21;;;;;;;5.15;3.65;;;23.70;63.60;;;;;;6213578;23;20000;-80
2023/05/30 03:11:47;;;;;;;4.65;3.30;;;23.70;63.50;;;;;;6186444;23;20036;-80
2023/05/30 03:14:13;;;;;;;6.78;3.35;;;23.70;63.50;;;;;;6185689;23;20335;-80
2023/05/30 03:16:39;;;;;;;5.78;4.00;;;23.70;63.10;;;;;;6186247;23;20005;-80
2023/05/30 03:19:05;;;;;;;6.70;3.88;;;23.80;63.10;;;;;;6186260;23;20355;-80
2023/05/30 03:21:33;;;;;;;5.25;3.40;;;23.80;62.80;;;;;;6159377;23;20090;-81
2023/05/30 03:23:59;;;;;;;4.38;3.30;;;23.80;62.70;;;;;;6185501;23;20006;-81
2023/05/30 03:26:27;;;;;;;7.18;3.90;;;23.80;62.60;;;;;;6185833;23;20008;-80
2023/05/30 03:28:53;;;;;;;6.30;3.60;;;23.80;62.60;;;;;;6185090;23;20001;-80
2023/05/30 03:31:19;;;;;;;10.90;4.22;;;23.80;62.70;;;;;;6186282;23;20308;-80
2023/05/30 03:33:45;;;;;;;8.73;3.70;;;23.80;62.60;;;;;;6185456;23;20001;-79
2023/05/30 03:36:11;;;;;;;4.60;3.40;;;23.80;62.50;;;;;;6185128;23;20011;-79
2023/05/30 03:38:37;;;;;;;6.70;3.35;;;23.80;62.30;;;;;;6186181;23;20001;-79
2023/05/30 03:41:04;;;;;;;6.22;3.50;;;23.80;62.20;;;;;;6186316;23;20007;-79
2023/05/30 03:43:30;;;;;;;6.70;3.38;;;23.80;62.20;;;;;;6185051;23;20005;-80
2023/05/30 03:45:56;;;;;;;5.68;3.10;;;23.70;62.20;;;;;;6185659;23;20071;-80
2023/05/30 03:48:21;;;;;;;4.90;3.53;;;23.70;62.20;;;;;;6186175;23;20067;-80
2023/05/30 03:50:47;;;;;;;5.32;3.78;;;23.70;62.30;;;;;;6185794;23;19997;-81
2023/05/30 03:53:13;;;;;;;6.18;3.47;;;23.60;62.50;;;;;;6185788;23;20055;-81
2023/05/30 03:55:39;;;;;;;5.55;3.45;;;23.70;62.50;;;;;;6185688;23;20005;-80
2023/05/30 03:58:05;;;;;;;4.43;3.45;;;23.70;62.70;;;;;;6185603;23;20005;-80
2023/05/30 04:00:31;;;;;;;5.07;3.00;;;23.70;62.70;;;;;;6184498;23;20001;-81
2023/05/30 04:02:59;;;;;;;5.60;3.63;;;23.70;62.70;;;;;;6186164;23;20024;-80
2023/05/30 04:05:25;;;;;;;6.05;3.42;;;23.60;62.80;;;;;;6185277;23;20001;-80
2023/05/30 04:07:51;;;;;;;5.60;3.42;;;23.60;63.00;;;;;;6185859;23;20001;-81
2023/05/30 04:10:17;;;;;;;5.50;3.78;;;23.60;63.10;;;;;;6185268;23;20087;-81
2023/05/30 04:12:43;;;;;;;5.88;3.05;;;23.50;63.20;;;;;;6185051;23;20442;-81
2023/05/30 04:15:10;;;;;;;7.35;3.47;;;23.50;63.20;;;;;;6184392;23;20048;-81
2023/05/30 04:17:36;;;;;;;4.13;3.20;;;23.40;63.30;;;;;;6186087;23;20424;-81
2023/05/30 04:20:04;;;;;;;5.82;3.58;;;23.40;63.70;;;;;;6184618;23;20012;-81
2023/05/30 04:22:32;;;;;;;6.18;3.00;;;23.40;63.70;;;;;;6185668;23;20023;-80
2023/05/30 04:24:58;;;;;;;5.82;3.60;;;23.40;63.90;;;;;;6185387;23;20349;-80
2023/05/30 04:27:24;;;;;;;4.88;3.40;;;23.40;64.00;;;;;;6185362;23;20052;-80
2023/05/30 04:29:50;;;;;;;5.25;3.47;;;23.30;64.00;;;;;;6184223;23;20366;-80
2023/05/30 04:32:16;;;;;;;5.43;3.63;;;23.30;64.10;;;;;;6185137;23;20028;-80
2023/05/30 04:34:43;;;;;;;4.88;2.90;;;23.40;64.30;;;;;;6185578;23;20009;-80
2023/05/30 04:37:11;;;;;;;5.07;3.97;;;23.40;64.20;;;;;;6185011;23;20005;-80
2023/05/30 04:39:38;;;;;;;4.78;3.22;;;23.40;64.10;;;;;;6184516;23;20001;-80
2023/05/30 04:42:04;;;;;;;5.32;3.35;;;23.40;64.20;;;;;;6185167;23;20009;-81
2023/05/30 04:44:37;;;;;;;5.53;3.40;;;23.30;64.30;;;;;;6183887;23;20029;-81
2023/05/30 04:47:10;;;;;;;5.68;3.67;;;23.20;64.40;;;;;;6184124;23;19998;-80
2023/05/30 04:49:41;;;;;;;5.95;3.38;;;23.10;64.80;;;;;;6183882;23;19997;-81
2023/05/30 04:52:07;;;;;;;6.43;3.83;;;23.10;64.90;;;;;;6158214;23;20008;-80
2023/05/30 04:54:33;;;;;;;5.47;3.60;;;23.10;65.30;;;;;;6185618;23;20136;-80
2023/05/30 04:56:59;;;;;;;4.70;3.25;;;23.10;64.90;;;;;;6184263;23;20037;-80
2023/05/30 04:59:25;;;;;;;4.60;3.17;;;23.10;65.20;;;;;;6185358;23;20005;-81
2023/05/30 05:01:52;;;;;;;4.68;3.33;;;23.10;65.40;;;;;;6184405;23;20024;-81
2023/05/30 05:04:18;;;;;;;6.03;3.30;;;23.10;65.50;;;;;;6184530;23;20004;-81
2023/05/30 05:06:43;;;;;;;4.80;3.10;;;23.10;65.40;;;;;;6183614;23;20001;-81
2023/05/30 05:09:10;;;;;;;4.68;2.95;;;23.10;65.70;;;;;;6183906;23;19997;-80
2023/05/30 05:11:36;;;;;;;6.70;3.38;;;23.10;65.80;;;;;;6184308;23;20040;-81
2023/05/30 05:14:02;;;;;;;5.15;3.00;;;23.10;65.70;;;;;;6184179;23;20427;-80
2023/05/30 05:16:28;;;;;;;7.15;3.72;;;23.10;66.00;;;;;;6184871;23;20016;-78
2023/05/30 05:18:53;;;;;;;5.93;4.10;;;23.10;65.90;;;;;;6183142;23;19993;-78
2023/05/30 05:21:19;;;;;;;5.05;3.63;;;23.10;65.90;;;;;;6184152;23;20587;-77
2023/05/30 05:23:45;;;;;;;3.92;3.40;;;23.10;66.20;;;;;;6184259;23;20075;-77
2023/05/30 05:26:11;;;;;;;6.75;4.20;;;23.10;66.40;;;;;;6183752;23;20008;-77
2023/05/30 05:28:36;;;;;;;4.90;3.83;;;23.00;66.30;;;;;;6184022;23;20084;-77
2023/05/30 05:31:02;;;;;;;4.70;3.10;;;23.00;66.20;;;;;;6184068;23;20001;-77
2023/05/30 05:33:27;;;;;;;7.00;3.30;;;23.10;66.20;;;;;;6184366;23;20462;-77
2023/05/30 05:35:53;;;;;;;4.75;3.30;;;23.10;66.20;;;;;;6184286;23;20102;-77
2023/05/30 05:38:19;;;;;;;5.80;3.10;;;23.20;66.50;;;;;;6185033;23;20430;-77
2023/05/30 05:40:45;;;;;;;7.28;3.22;;;23.30;66.20;;;;;;6184906;23;20309;-77
2023/05/30 05:43:11;;;;;;;4.60;3.17;;;23.40;66.20;;;;;;6185008;23;20427;-77
2023/05/30 05:45:36;;;;;;;6.25;3.72;;;23.40;66.20;;;;;;6185199;23;20005;-79
2023/05/30 05:48:02;;;;;;;4.30;3.40;;;23.50;66.20;;;;;;6184441;23;20024;-78
2023/05/30 05:50:28;;;;;;;4.45;3.33;;;23.60;66.30;;;;;;6184919;23;20072;-77
2023/05/30 05:52:54;;;;;;;6.35;3.45;;;23.60;66.50;;;;;;6184781;23;19989;-79
2023/05/30 05:55:19;;;;;;;9.25;3.60;;;23.60;66.30;;;;;;6184168;23;20005;-78
2023/05/30 05:57:45;;;;;;;6.50;3.50;;;23.70;65.80;;;;;;6183665;23;20497;-78
2023/05/30 06:00:12;;;;;;;4.82;3.08;;;23.70;65.70;;;;;;6184652;23;20438;-78
2023/05/30 06:02:37;;;;;;;5.45;3.72;;;23.70;65.70;;;;;;6184770;23;20001;-78
2023/05/30 06:05:03;;;;;;;6.68;3.63;;;23.70;65.70;;;;;;6184085;23;20008;-78
2023/05/30 06:07:29;;;;;;;6.47;3.65;;;23.80;66.10;;;;;;6185136;23;20293;-78
2023/05/30 06:09:55;;;;;;;4.78;3.47;;;23.80;65.50;;;;;;6185136;23;20060;-79
2023/05/30 06:12:21;;;;;;;6.93;3.55;;;23.90;65.30;;;;;;6158794;23;20005;-78
2023/05/30 06:14:46;;;;;;;4.47;3.15;;;23.90;65.40;;;;;;6185170;23;20447;-78
2023/05/30 06:17:12;;;;;;;3.75;3.05;;;24.00;65.40;;;;;;6184839;23;20009;-80
2023/05/30 06:19:38;;;;;;;6.20;3.30;;;24.00;65.30;;;;;;6184871;23;20012;-79
2023/05/30 06:22:04;;;;;;;6.35;3.28;;;24.10;65.10;;;;;;6157596;23;20001;-79
2023/05/30 06:24:30;;;;;;;7.32;3.83;;;24.10;64.90;;;;;;6183385;23;20099;-79
2023/05/30 06:26:56;;;;;;;5.70;3.72;;;24.20;65.20;;;;;;6182657;23;20001;-77
2023/05/30 06:29:21;;;;;;;5.57;3.17;;;24.20;64.90;;;;;;6182804;23;20105;-77
2023/05/30 06:31:47;;;;;;;5.88;3.45;;;24.30;64.60;;;;;;6183739;23;20442;-79
2023/05/30 06:34:13;;;;;;;6.35;3.13;;;24.30;64.30;;;;;;6183754;23;20002;-79
2023/05/30 06:36:38;;;;;;;4.70;2.95;;;24.30;64.50;;;;;;6184563;23;20008;-79
2023/05/30 06:39:04;;;;;;;6.57;3.67;;;24.30;64.60;;;;;;6183225;23;20398;-79
2023/05/30 06:41:30;;;;;;;5.47;3.00;;;24.40;64.60;;;;;;6184404;23;20001;-80
2023/05/30 06:43:55;;;;;;;5.10;3.45;;;24.50;64.40;;;;;;6184547;23;20001;-79
2023/05/30 06:46:21;;;;;;;7.10;3.50;;;24.50;64.60;;;;;;6185682;23;20399;-80
2023/05/30 06:48:47;;;;;;;5.53;4.13;;;24.60;64.30;;;;;;6187097;23;20039;-80
2023/05/30 06:51:12;;;;;;;8.45;4.15;;;24.60;63.90;;;;;;6186678;23;19997;-80
2023/05/30 06:53:38;;;;;;;6.22;3.97;;;24.70;64.10;;;;;;6186723;23;20012;-79
2023/05/30 06:56:04;;;;;;;5.78;4.40;;;24.70;63.60;;;;;;6187355;23;20005;-79
2023/05/30 06:58:30;;;;;;;13.02;3.53;;;24.70;64.00;;;;;;6186684;23;20442;-79
2023/05/30 07:00:55;;;;;;;4.72;3.30;;;24.70;63.90;;;;;;6186800;23;20027;-79
2023/05/30 07:03:21;;;;;;;10.43;3.95;;;24.70;64.50;;;;;;6186866;23;20001;-79
2023/05/30 07:05:47;;;;;;;12.35;4.32;;;24.80;64.40;;;;;;6186417;23;20064;-79
2023/05/30 07:08:12;;;;;;;6.25;3.90;;;24.80;64.30;;;;;;6184648;23;20004;-79
2023/05/30 07:10:38;;;;;;;6.93;4.55;;;24.90;63.80;;;;;;6203513;23;20012;-79
2023/05/30 07:13:03;;;;;;;8.85;4.70;;;24.90;63.20;;;;;;6216864;23;20004;-79
2023/05/30 07:15:31;;;;;;;7.38;3.85;;;24.90;63.60;;;;;;6216743;23;20084;-79
2023/05/30 07:17:57;;;;;;;7.68;3.85;;;24.90;63.30;;;;;;6217157;23;20007;-79
2023/05/30 07:20:23;;;;;;;22.20;5.50;;;24.90;63.30;;;;;;6217110;23;20005;-79
2023/05/30 07:22:51;;;;;;;11.80;4.60;;;25.00;63.60;;;;;;6216835;23;20439;-79
2023/05/30 07:25:17;;;;;;;5.30;3.35;;;25.10;62.50;;;;;;6216961;23;20092;-79
2023/05/30 07:27:43;;;;;;;7.57;3.85;;;25.20;62.80;;;;;;6216912;23;20028;-79
2023/05/30 07:30:09;;;;;;;4.90;3.53;;;25.30;63.10;;;;;;6216363;23;20001;-79
2023/05/30 07:32:34;;;;;;;7.07;4.25;;;25.40;62.60;;;;;;6190094;23;20132;-79
2023/05/30 07:35:00;;;;;;;7.07;3.28;;;25.40;61.60;;;;;;6216707;23;20007;-79
2023/05/30 07:37:26;;;;;;;16.67;5.65;;;25.50;61.70;;;;;;6216741;23;20423;-79
2023/05/30 07:39:51;;;;;;;12.32;4.60;;;25.50;61.60;;;;;;6216483;23;20008;-79
2023/05/30 07:42:17;;;;;;;9.30;3.97;;;25.60;59.30;;;;;;6216571;23;20423;-79
2023/05/30 07:44:43;;;;;;;33.45;6.63;;;25.70;56.20;;;;;;6216774;23;20001;-78
2023/05/30 07:47:08;;;;;;;5.03;3.83;;;25.70;57.10;;;;;;6216973;23;20386;-78
2023/05/30 07:49:34;;;;;;;16.38;5.82;;;25.80;56.50;;;;;;6216995;23;20000;-78
2023/05/30 07:52:00;;;;;;;7.32;4.10;;;25.90;57.20;;;;;;6216558;23;20419;-78
2023/05/30 07:54:25;;;;;;;7.82;3.53;;;26.00;55.80;;;;;;6216753;23;20000;-78
2023/05/30 07:56:51;;;;;;;9.25;3.85;;;26.00;54.90;;;;;;6216567;23;20009;-78
2023/05/30 07:59:17;;;;;;;5.90;3.80;;;26.10;54.90;;;;;;6216224;23;20028;-78
2023/05/30 08:01:45;;;;;;;6.20;3.35;;;26.10;54.60;;;;;;6216479;23;20001;-78
2023/05/30 08:04:10;;;;;;;5.07;3.65;;;26.20;53.80;;;;;;6216491;23;20024;-78
2023/05/30 08:06:36;;;;;;;5.20;3.60;;;26.30;51.90;;;;;;6216156;23;20003;-78
2023/05/30 08:09:02;;;;;;;4.78;3.67;;;26.30;51.60;;;;;;6216400;23;19996;-78
2023/05/30 08:11:28;;;;;;;4.57;3.25;;;26.30;51.50;;;;;;6215659;23;20056;-77
2023/05/30 08:13:53;;;;;;;7.80;4.07;;;26.50;51.50;;;;;;6189559;23;20024;-79
2023/05/30 08:16:20;;;;;;;4.22;3.15;;;26.50;50.90;;;;;;6215837;23;20032;-78
2023/05/30 08:18:45;;;;;;;7.43;3.70;;;26.60;51.80;;;;;;6216179;23;20012;-78
2023/05/30 08:21:11;;;;;;;5.85;3.25;;;26.60;50.80;;;;;;6216678;23;20005;-80
2023/05/30 08:23:37;;;;;;;4.25;3.08;;;26.60;51.00;;;;;;6215083;23;20005;-79
2023/05/30 08:26:03;;;;;;;3.70;2.78;;;26.70;50.40;;;;;;6188078;23;20136;-78
2023/05/30 08:28:29;;;;;;;4.40;3.00;;;26.70;50.90;;;;;;6214847;23;20327;-79
2023/05/30 08:30:55;;;;;;;5.18;3.33;;;26.80;50.90;;;;;;6215982;23;20004;-79
2023/05/30 08:33:22;;;;;;;6.15;3.35;;;26.90;51.30;;;;;;6215531;23;20071;-78
2023/05/30 08:35:47;;;;;;;10.70;3.67;;;26.90;51.20;;;;;;6188984;23;20055;-77
2023/05/30 08:38:13;;;;;;;4.22;3.10;;;26.90;51.10;;;;;;6215898;23;20000;-78
2023/05/30 08:40:42;;;;;;;7.95;3.30;;;27.00;50.50;;;;;;6215569;23;20008;-78
2023/05/30 08:43:08;;;;;;;18.25;4.47;;;27.00;49.90;;;;;;6215472;23;20450;-78
2023/05/30 08:45:33;;;;;;;9.40;3.92;;;27.00;49.30;;;;;;6215868;23;20319;-78
2023/05/30 08:47:59;;;;;;;8.65;3.50;;;27.10;48.10;;;;;;6215724;23;19997;-77
2023/05/30 08:50:26;;;;;;;6.22;3.50;;;27.10;48.20;;;;;;6215977;23;19996;-77
2023/05/30 08:52:53;;;;;;;6.18;3.20;;;27.20;48.50;;;;;;6215731;23;20007;-77
2023/05/30 08:55:32;;;;;;;5.72;3.30;;;27.20;47.90;;;;;;6215402;23;20008;-77
2023/05/30 08:58:10;;;;;;;8.00;4.13;;;27.30;47.60;;;;;;6215828;23;20426;-77
2023/05/30 09:00:37;;;;;;;12.15;3.38;;;27.30;47.90;;;;;;6189189;23;20041;-78
2023/05/30 09:03:07;;;;;;;5.05;3.40;;;27.40;49.20;;;;;;6215800;23;20007;-78
2023/05/30 09:05:34;;;;;;;4.63;3.30;;;27.50;49.70;;;;;;6215654;23;20004;-78
2023/05/30 09:08:05;;;;;;;5.78;3.35;;;27.60;49.30;;;;;;6215573;23;19997;-78
2023/05/30 09:10:32;;;;;;;10.38;3.90;;;27.60;49.40;;;;;;6215226;23;20095;-78
2023/05/30 09:12:59;;;;;;;13.40;3.75;;;27.70;48.00;;;;;;6188739;23;20007;-78
2023/05/30 09:15:24;;;;;;;5.78;3.08;;;27.70;48.10;;;;;;6215548;23;20005;-79
2023/05/30 09:17:50;;;;;;;4.82;3.63;;;27.70;48.60;;;;;;6188694;23;20063;-78
2023/05/30 09:20:17;;;;;;;4.07;3.05;;;27.70;47.10;;;;;;6215581;23;20012;-78
2023/05/30 09:22:47;;;;;;;5.47;3.67;;;27.80;47.20;;;;;;6214913;23;20101;-78
2023/05/30 09:25:16;;;;;;;9.90;3.80;;;27.80;47.00;;;;;;6188577;23;20011;-79
2023/05/30 09:27:49;;;;;;;3.97;2.93;;;27.90;46.40;;;;;;6188774;23;20009;-78
2023/05/30 09:30:15;;;;;;;3.28;2.60;;;27.90;46.70;;;;;;6214824;23;20008;-78
2023/05/30 09:32:41;;;;;;;6.50;3.00;;;28.00;47.20;;;;;;6215271;23;20001;-78
2023/05/30 09:35:09;;;;;;;4.00;3.20;;;28.00;47.10;;;;;;6189386;23;20031;-78
2023/05/30 09:37:40;;;;;;;6.95;3.47;;;28.20;48.20;;;;;;6215490;23;20016;-78
2023/05/30 09:40:08;;;;;;;6.32;3.63;;;28.30;47.20;;;;;;6214949;23;20427;-78
2023/05/30 09:42:51;;;;;;;4.43;3.38;;;28.30;47.90;;;;;;6188698;23;20289;-78
2023/05/30 09:45:20;;;;;;;9.88;3.78;;;28.40;47.40;;;;;;6215431;23;20004;-78
2023/05/30 09:47:46;;;;;;;4.00;3.15;;;28.40;45.60;;;;;;6215651;23;20474;-78
2023/05/30 09:50:15;;;;;;;7.35;3.13;;;28.40;46.50;;;;;;6215554;23;20005;-78
2023/05/30 09:52:42;;;;;;;5.88;3.58;;;28.40;47.50;;;;;;6215437;23;20000;-78
2023/05/30 09:55:09;;;;;;;5.38;3.40;;;28.40;47.40;;;;;;6215699;23;20001;-78
2023/05/30 09:57:37;;;;;;;6.88;3.65;;;28.50;47.10;;;;;;6188764;23;20008;-79
2023/05/30 10:00:09;;;;;;;3.15;2.70;;;28.60;47.40;;;;;;6215901;23;20323;-79
2023/05/30 10:02:36;;;;;;;5.57;3.20;;;28.70;47.60;;;;;;6215286;23;20032;-79
2023/05/30 10:05:04;;;;;;;6.03;3.30;;;28.80;47.50;;;;;;6188857;23;20040;-79
2023/05/30 10:07:30;;;;;;;5.55;3.00;;;28.90;46.70;;;;;;6214665;23;20001;-78
2023/05/30 10:09:56;;;;;;;10.82;3.63;;;29.00;46.90;;;;;;6214412;23;20128;-78
2023/05/30 10:12:23;;;;;;;5.28;3.33;;;29.00;46.50;;;;;;6214131;23;20004;-78
2023/05/30 10:14:49;;;;;;;5.45;3.40;;;29.10;46.70;;;;;;6214920;23;20031;-78
2023/05/30 10:17:18;;;;;;;4.50;3.42;;;29.20;46.60;;;;;;6214889;23;20012;-78
2023/05/30 10:19:54;;;;;;;4.05;3.35;;;29.30;46.60;;;;;;6215104;23;20038;-78
2023/05/30 10:22:21;;;;;;;5.28;3.30;;;29.40;46.20;;;;;;6189536;23;20005;-78
2023/05/30 10:24:48;;;;;;;5.72;3.30;;;29.50;45.90;;;;;;6216553;23;20032;-78
2023/05/30 10:27:29;;;;;;;6.15;3.05;;;29.50;44.60;;;;;;6216996;23;20024;-78
2023/05/30 10:30:06;;;;;;;4.47;3.15;;;29.60;45.30;;;;;;6217220;23;20004;-78
2023/05/30 10:32:44;;;;;;;6.22;3.00;;;29.60;45.00;;;;;;6216749;23;20024;-78
2023/05/30 10:35:20;;;;;;;2.92;2.63;;;29.80;43.80;;;;;;6216728;23;20112;-78
2023/05/30 10:37:47;;;;;;;4.63;3.13;;;29.90;43.50;;;;;;6216388;23;20004;-78
2023/05/30 10:40:35;;;;;;;4.03;3.25;;;30.00;43.70;;;;;;6217008;23;20000;-78
2023/05/30 10:43:21;;;;;;;3.85;3.05;;;30.00;43.20;;;;;;6190140;23;20386;-78
2023/05/30 10:46:14;;;;;;;5.78;3.25;;;30.10;42.60;;;;;;6216369;23;20410;-77
2023/05/30 10:48:49;;;;;;;7.20;3.65;;;30.20;42.70;;;;;;6216971;23;20083;-78
2023/05/30 10:51:15;;;;;;;3.50;3.05;;;30.30;43.90;;;;;;6217080;23;19997;-78
2023/05/30 10:53:43;;;;;;;5.15;2.83;;;30.40;43.40;;;;;;6213510;23;20004;-78
2023/05/30 10:56:34;;;;;;;5.75;3.20;;;30.50;43.80;;;;;;6216744;23;20072;-78
2023/05/30 10:59:01;;;;;;;7.78;3.60;;;30.70;42.90;;;;;;6216508;23;20008;-78
2023/05/30 11:01:31;;;;;;;3.72;3.08;;;30.80;42.90;;;;;;6216478;23;20541;-78
2023/05/30 11:04:07;;;;;;;4.47;3.17;;;30.90;42.70;;;;;;6216910;23;20005;-77
2023/05/30 11:06:42;;;;;;;4.10;3.40;;;31.00;42.80;;;;;;6216248;23;20067;-77
2023/05/30 11:09:09;;;;;;;5.78;3.95;;;31.10;42.50;;;;;;6216916;23;20007;-78
2023/05/30 11:11:40;;;;;;;4.57;3.15;;;31.20;42.30;;;;;;6191057;23;20603;-79
2023/05/30 11:14:07;;;;;;;6.43;2.90;;;31.30;42.10;;;;;;6217673;23;20007;-78
2023/05/30 11:16:46;;;;;;;5.90;3.63;;;31.50;41.80;;;;;;6216319;23;20055;-78
2023/05/30 11:19:12;;;;;;;4.03;2.78;;;31.50;41.70;;;;;;6213885;23;20099;-79
2023/05/30 11:21:55;;;;;;;3.47;3.13;;;31.60;41.60;;;;;;6188213;23;20024;-80
2023/05/30 11:24:22;;;;;;;4.05;2.88;;;31.70;40.70;;;;;;6188388;23;20050;-80
2023/05/30 11:27:01;;;;;;;7.35;3.88;;;31.80;41.10;;;;;;6215270;23;19997;-79
2023/05/30 11:29:47;;;;;;;4.25;2.97;;;31.80;40.40;;;;;;6215692;23;19996;-80
2023/05/30 11:32:18;;;;;;;4.90;3.22;;;31.90;40.70;;;;;;6187361;23;20000;-79
2023/05/30 11:34:44;;;;;;;3.42;2.97;;;32.10;41.00;;;;;;6188740;23;20008;-80
2023/05/30 11:37:11;;;;;;;5.13;3.08;;;32.30;40.60;;;;;;6212075;23;20028;-80
2023/05/30 11:39:37;;;;;;;5.60;3.15;;;32.50;40.70;;;;;;6214603;23;20004;-80
2023/05/30 11:42:05;;;;;;;4.45;3.30;;;32.90;40.80;;;;;;6212996;23;20004;-79
2023/05/30 11:44:32;;;;;;;6.88;3.15;;;33.10;40.50;;;;;;6213965;23;20011;-79
2023/05/30 11:47:11;;;;;;;5.10;3.38;;;33.40;39.50;;;;;;6214854;23;20071;-79
2023/05/30 11:49:37;;;;;;;4.78;3.15;;;33.60;39.60;;;;;;6188283;23;20059;-79
2023/05/30 11:52:03;;;;;;;4.72;3.30;;;34.00;39.90;;;;;;6187603;23;20008;-80
2023/05/30 11:54:29;;;;;;;4.22;3.17;;;34.30;39.70;;;;;;6214269;23;20056;-80
2023/05/30 11:56:56;;;;;;;5.85;3.40;;;34.50;37.80;;;;;;6188420;23;20055;-80
2023/05/30 11:59:26;;;;;;;7.38;3.47;;;34.60;38.00;;;;;;6213886;23;20059;-80
2023/05/30 12:01:57;;;;;;;6.18;3.47;;;34.60;37.30;;;;;;6214450;23;20008;-80
2023/05/30 12:04:29;;;;;;;5.10;3.75;;;34.70;37.10;;;;;;6186192;23;20005;-80
2023/05/30 12:07:02;;;;;;;6.45;3.45;;;34.80;37.90;;;;;;6211600;23;20004;-79
2023/05/30 12:09:39;;;;;;;3.47;3.08;;;34.90;38.00;;;;;;6211470;23;20415;-80
2023/05/30 12:12:06;;;;;;;4.78;2.88;;;35.00;37.20;;;;;;6212026;23;20008;-81
2023/05/30 12:15:00;;;;;;;6.43;3.03;;;35.00;37.00;;;;;;6212358;23;20019;-80
2023/05/30 12:17:26;;;;;;;5.65;3.40;;;35.20;36.40;;;;;;6210695;23;20015;-79
2023/05/30 12:19:58;;;;;;;3.97;3.20;;;35.30;36.20;;;;;;6207794;23;20080;-80
2023/05/30 12:22:26;;;;;;;5.75;3.47;;;35.40;36.30;;;;;;6210615;23;20016;-80
2023/05/30 12:24:52;;;;;;;5.15;2.65;;;35.60;35.50;;;;;;6183365;23;20013;-79
2023/05/30 12:27:21;;;;;;;4.47;3.00;;;35.50;36.10;;;;;;6209311;23;20000;-79
2023/05/30 12:29:48;;;;;;;4.97;3.00;;;35.30;35.40;;;;;;6184871;23;20066;-79
2023/05/30 12:32:20;;;;;;;3.72;2.80;;;35.10;35.90;;;;;;6182788;23;20402;-79
2023/05/30 12:34:47;;;;;;;4.15;2.90;;;34.90;36.20;;;;;;6184751;23;20410;-79
2023/05/30 12:37:14;;;;;;;5.03;2.67;;;34.70;36.10;;;;;;6183649;23;20013;-80
2023/05/30 12:40:00;;;;;;;3.97;3.00;;;34.60;36.30;;;;;;6184429;23;20712;-79
2023/05/30 12:42:28;;;;;;;6.40;2.70;;;34.60;37.20;;;;;;6212064;23;20009;-79
2023/05/30 12:44:56;;;;;;;5.72;2.47;;;34.60;37.30;;;;;;6186206;23;20008;-80
2023/05/30 12:47:23;;;;;;;5.25;2.80;;;34.70;37.60;;;;;;6186841;23;20435;-79
2023/05/30 12:49:49;;;;;;;4.43;3.05;;;34.90;37.80;;;;;;6215686;23;20008;-78